Time;durP1;ratioP1;P1;durP2;ratioP2;P2;SDS_P1;SDS_P2;PMS_P1;PMS_P2;Temp;Humidity;BMP_temperature;BMP_pressure;BME280_temperature;BME280_humidity;BME280_pressure;Samples;Min_cycle;Max_cycle;Signal;HPM_P1;HPM_P2
2021/07/18 00:22:06;;;;;;;18.25;12.10;;;;;;;21.06;84.60;100577.55;20655537;82;100004;-91
2021/07/18 00:52:11;;;;;;;19.45;13.80;;;;;;;20.95;85.75;100560.89;20644120;81;99918;-90
2021/07/18 01:22:12;;;;;;;20.40;15.60;;;;;;;20.68;86.28;100556.24;20637547;82;99717;-89
2021/07/18 01:52:17;;;;;;;24.00;16.07;;;;;;;20.26;88.26;100528.04;20774590;82;99843;-90
2021/07/18 02:22:42;;;;;;;24.07;18.23;;;;;;;19.91;89.17;100528.34;20884103;83;101154;-88
2021/07/18 02:52:44;;;;;;;21.00;15.13;;;;;;;19.51;89.79;100522.73;20884595;83;100251;-88
2021/07/18 03:22:47;;;;;;;27.80;18.37;;;;;;;19.18;90.04;100542.01;20881034;83;99868;-88
2021/07/18 03:52:48;;;;;;;23.95;15.95;;;;;;;18.82;90.77;100562.72;20717754;83;99949;-88
2021/07/18 04:22:49;;;;;;;19.87;14.03;;;;;;;18.64;91.09;100556.72;20646385;84;100223;-90
2021/07/18 04:52:50;;;;;;;22.57;11.60;;;;;;;18.70;91.95;100564.77;20803116;82;99867;-89
2021/07/18 05:22:52;;;;;;;17.98;9.45;;;;;;;19.04;91.95;100595.94;20876530;83;99765;-88
2021/07/18 05:52:53;;;;;;;12.40;7.10;;;;;;;19.53;90.75;100601.88;20610071;83;100477;-90
2021/07/18 06:22:54;;;;;;;13.93;6.67;;;;;;;22.40;85.78;100593.05;20515575;83;99999;-92
2021/07/18 06:52:57;;;;;;;14.43;6.35;;;;;;;26.21;76.46;100591.53;20543626;82;105262;-92
2021/07/18 07:23:00;;;;;;;15.38;5.80;;;;;;;28.53;68.46;100603.55;20593722;82;303206;-95
2021/07/18 07:53:06;;;;;;;13.85;5.55;;;;;;;29.69;62.90;100628.30;20572726;82;170490;-96
2021/07/18 08:23:07;;;;;;;9.73;4.15;;;;;;;29.36;60.27;100618.81;20632489;82;101917;-89
2021/07/18 08:53:09;;;;;;;9.55;3.67;;;;;;;30.16;59.14;100629.05;20803381;81;200396;-93
2021/07/18 09:23:20;;;;;;;6.25;2.75;;;;;;;31.08;55.83;100620.06;20866537;83;99678;-89
2021/07/18 09:53:22;;;;;;;7.55;2.70;;;;;;;32.15;53.06;100608.38;20709319;83;197481;-93
2021/07/18 10:23:25;;;;;;;5.03;2.50;;;;;;;34.42;46.61;100594.31;20565340;83;5297327;-94
2021/07/18 10:53:30;;;;;;;7.22;2.20;;;;;;;35.05;45.49;100584.53;20783054;83;150619;-94
2021/07/18 11:23:46;;;;;;;6.53;2.20;;;;;;;35.67;43.47;100573.01;20873750;83;159361;-94
2021/07/18 11:54:01;;;;;;;5.00;2.02;;;;;;;36.00;41.38;100554.45;20756787;83;281929;-94
2021/07/18 12:24:32;;;;;;;5.87;2.30;;;;;;;35.76;40.44;100541.77;20659947;81;159495;-93
2021/07/18 12:54:36;;;;;;;3.37;1.67;;;;;;;35.33;39.35;100510.48;20659616;83;99495;-91
2021/07/18 13:24:44;;;;;;;5.50;1.82;;;;;;;34.79;39.79;100492.87;20632596;82;99605;-92
2021/07/18 13:54:48;;;;;;;5.45;1.37;;;;;;;33.88;40.13;100478.58;20630431;82;99812;-89
2021/07/18 14:24:49;;;;;;;6.45;1.30;;;;;;;32.87;39.91;100458.60;20646799;81;348396;-91
2021/07/18 14:54:50;;;;;;;5.33;1.65;;;;;;;32.22;39.57;100454.80;20690094;82;99808;-93
2021/07/18 15:25:05;;;;;;;4.70;1.62;;;;;;;30.94;41.21;100444.17;20676043;81;103901;-95
2021/07/18 15:55:11;;;;;;;5.85;3.10;;;;;;;29.73;44.00;100428.80;20766304;83;99565;-96
2021/07/18 16:25:14;;;;;;;6.47;2.20;;;;;;;28.76;44.67;100430.52;20848222;82;140721;-92
2021/07/18 16:55:17;;;;;;;6.30;2.10;;;;;;;27.85;46.05;100420.60;20741787;82;99674;-91
2021/07/18 17:25:19;;;;;;;10.13;2.80;;;;;;;26.90;48.01;100456.39;20643030;82;99701;-93
2021/07/18 17:55:23;;;;;;;11.22;4.92;;;;;;;26.03;49.76;100473.78;20615513;83;201738;-89
2021/07/18 18:25:33;;;;;;;13.07;7.53;;;;;;;25.27;50.87;100489.86;20537363;83;127338;-96
2021/07/18 18:55:35;;;;;;;17.37;9.25;;;;;;;24.62;52.87;100488.92;20666359;83;5133758;-94
2021/07/18 19:25:36;;;;;;;13.72;7.65;;;;;;;23.91;54.62;100517.91;20858628;83;171220;-95
2021/07/18 19:55:37;;;;;;;11.95;6.35;;;;;;;23.03;57.38;100549.30;20825342;81;264918;-94
2021/07/18 20:25:39;;;;;;;20.68;15.63;;;;;;;22.22;60.00;100575.27;20715480;82;8605416;-93
2021/07/18 20:55:44;;;;;;;12.95;8.35;;;;;;;21.38;62.85;100580.19;20622520;83;5533769;-90
2021/07/18 21:25:44;;;;;;;16.03;8.00;;;;;;;20.52;65.50;100568.87;20647177;83;99899;-90
2021/07/18 21:55:45;;;;;;;15.00;8.08;;;;;;;19.68;68.77;100566.20;20748246;83;106125;-91
2021/07/18 22:25:46;;;;;;;14.28;8.63;;;;;;;19.06;71.69;100533.52;20873148;83;99669;-91
2021/07/18 22:55:50;;;;;;;14.83;8.17;;;;;;;18.57;73.45;100559.63;20876772;83;99780;-91
2021/07/18 23:26:00;;;;;;;14.98;8.70;;;;;;;18.03;75.30;100548.48;20784722;82;5399454;-91
2021/07/18 23:56:02;;;;;;;15.53;8.33;;;;;;;17.58;77.09;100534.69;20856434;82;99890;-90
